Time;durP1;ratioP1;P1;durP2;ratioP2;P2;SDS_P1;SDS_P2;PMS_P1;PMS_P2;Temp;Humidity;BMP_temperature;BMP_pressure;BME280_temperature;BME280_humidity;BME280_pressure;Samples;Min_cycle;Max_cycle;Signal;HPM_P1;HPM_P2
2021/08/16 00:01:01;;;;;;;19.17;5.42;;;;;;;16.05;67.95;100672.80;1737895;82;21020;-80
2021/08/16 00:03:27;;;;;;;8.63;5.33;;;;;;;16.06;67.96;100673.23;1745173;82;21040;-81
2021/08/16 00:05:54;;;;;;;11.90;4.78;;;;;;;16.07;67.94;100665.72;1741874;81;21632;-80
2021/08/16 00:08:21;;;;;;;8.80;5.47;;;;;;;16.10;67.97;100671.47;1735383;82;21751;-80
2021/08/16 00:10:48;;;;;;;12.07;5.30;;;;;;;16.15;68.03;100663.52;1738387;81;21004;-80
2021/08/16 00:13:20;;;;;;;9.88;5.08;;;;;;;16.19;68.06;100659.98;1733583;82;21498;-80
2021/08/16 00:15:44;;;;;;;10.50;5.22;;;;;;;16.27;68.11;100665.75;1734611;82;21066;-80
2021/08/16 00:18:10;;;;;;;7.62;5.00;;;;;;;16.37;68.06;100654.67;1730069;82;21035;-80
2021/08/16 00:20:37;;;;;;;7.80;4.83;;;;;;;16.43;67.93;100652.00;1729862;82;21723;-79
2021/08/16 00:23:06;;;;;;;13.78;5.42;;;;;;;16.52;67.87;100655.98;1736924;82;21673;-80
2021/08/16 00:25:33;;;;;;;8.70;4.50;;;;;;;16.61;67.81;100651.11;1733878;81;22298;-80
2021/08/16 00:28:00;;;;;;;7.72;4.78;;;;;;;16.66;67.71;100645.33;1742118;81;21071;-80
2021/08/16 00:30:26;;;;;;;9.98;4.75;;;;;;;16.73;67.60;100644.88;1713976;82;21023;-80
2021/08/16 00:32:53;;;;;;;8.58;4.58;;;;;;;16.79;67.50;100644.86;1738407;82;21873;-80
2021/08/16 00:35:20;;;;;;;9.55;5.22;;;;;;;16.83;67.40;100643.99;1735294;82;21008;-79
2021/08/16 00:37:47;;;;;;;9.35;4.83;;;;;;;16.85;67.30;100639.55;1773742;80;21066;-80
2021/08/16 00:40:15;;;;;;;8.50;4.25;;;;;;;16.86;67.27;100644.45;1705888;84;21650;-79
2021/08/16 00:42:48;;;;;;;8.30;4.22;;;;;;;16.88;67.29;100634.70;1737520;82;21514;-80
2021/08/16 00:45:13;;;;;;;10.23;5.05;;;;;;;16.88;67.30;100638.23;1734513;82;21814;-79
2021/08/16 00:47:43;;;;;;;8.88;5.00;;;;;;;16.89;67.25;100634.70;1736744;82;21083;-80
2021/08/16 00:50:11;;;;;;;9.25;4.92;;;;;;;16.92;67.25;100631.59;1729250;82;21067;-80
2021/08/16 00:52:41;;;;;;;9.95;4.50;;;;;;;16.92;67.16;100623.61;1713702;82;21082;-80
2021/08/16 00:55:09;;;;;;;12.40;5.28;;;;;;;16.93;67.17;100615.64;1731479;82;21559;-80
2021/08/16 00:57:40;;;;;;;9.25;5.40;;;;;;;16.92;67.14;100613.85;1736072;82;22520;-80
2021/08/16 01:00:11;;;;;;;9.58;4.90;;;;;;;16.88;67.06;100606.33;1708938;82;21071;-79
2021/08/16 01:02:42;;;;;;;11.40;5.25;;;;;;;16.87;67.11;100599.27;1738712;82;21039;-80
2021/08/16 01:05:11;;;;;;;12.63;4.60;;;;;;;16.85;67.10;100594.36;1736191;81;21152;-81
2021/08/16 01:07:48;;;;;;;11.35;4.92;;;;;;;16.83;67.09;100582.85;1735632;81;21079;-79
2021/08/16 01:10:21;;;;;;;10.03;4.78;;;;;;;16.82;67.19;100575.78;1702128;82;21602;-79
2021/08/16 01:12:49;;;;;;;7.37;4.80;;;;;;;16.79;67.20;100567.77;1735388;82;21118;-79
2021/08/16 01:15:17;;;;;;;8.93;5.10;;;;;;;16.76;67.21;100561.16;1702489;82;21027;-79
2021/08/16 01:17:44;;;;;;;11.65;5.42;;;;;;;16.74;67.30;100562.03;1743591;82;21710;-79
2021/08/16 01:20:12;;;;;;;8.23;5.30;;;;;;;16.71;67.28;100562.48;1736279;82;21079;-80
2021/08/16 01:22:42;;;;;;;8.18;5.40;;;;;;;16.68;67.26;100562.94;1738452;82;21851;-80
2021/08/16 01:25:14;;;;;;;9.13;5.55;;;;;;;16.64;67.24;100555.42;1738768;82;21083;-80
2021/08/16 01:27:39;;;;;;;9.03;5.62;;;;;;;16.60;67.32;100548.35;1738028;82;21070;-79
2021/08/16 01:30:12;;;;;;;9.13;5.42;;;;;;;16.58;67.36;100543.94;1737526;81;21067;-80
2021/08/16 01:32:38;;;;;;;9.48;5.45;;;;;;;16.56;67.48;100537.75;1737209;82;21560;-80
2021/08/16 01:35:05;;;;;;;10.08;5.60;;;;;;;16.54;67.65;100534.22;1703762;83;21860;-79
2021/08/16 01:37:32;;;;;;;11.73;5.67;;;;;;;16.50;67.67;100534.22;1707088;83;21095;-79
2021/08/16 01:40:01;;;;;;;13.38;6.15;;;;;;;16.48;67.80;100542.64;1692238;83;21063;-80
2021/08/16 01:42:27;;;;;;;15.13;6.40;;;;;;;16.45;67.84;100535.98;1770411;80;21107;-79
2021/08/16 01:44:55;;;;;;;11.70;5.90;;;;;;;16.43;67.87;100529.80;1776465;80;21086;-79
2021/08/16 01:47:21;;;;;;;10.10;5.75;;;;;;;16.40;67.90;100533.78;1769565;80;21945;-80
2021/08/16 01:49:48;;;;;;;12.90;5.30;;;;;;;16.37;67.94;100535.14;1706004;84;21151;-80
2021/08/16 01:52:15;;;;;;;13.45;5.62;;;;;;;16.35;68.00;100531.60;1733709;82;21051;-80
2021/08/16 01:54:42;;;;;;;8.78;5.33;;;;;;;16.31;68.06;100529.81;1704263;84;21133;-80
2021/08/16 01:57:09;;;;;;;16.95;6.05;;;;;;;16.27;68.14;100521.42;1704537;83;21502;-84
2021/08/16 01:59:38;;;;;;;11.93;6.75;;;;;;;16.23;68.22;100531.16;1735314;82;21760;-80
2021/08/16 02:02:09;;;;;;;12.00;7.10;;;;;;;16.17;68.24;100525.87;1719920;82;21345;-80
2021/08/16 02:04:34;;;;;;;14.93;7.97;;;;;;;16.11;68.26;100525.44;1712710;83;21063;-80
2021/08/16 02:07:03;;;;;;;14.23;8.18;;;;;;;16.05;68.30;100522.80;1690989;83;21082;-80
2021/08/16 02:09:32;;;;;;;19.35;8.18;;;;;;;16.00;68.40;100525.02;1723801;82;21063;-80
2021/08/16 02:11:58;;;;;;;16.97;8.35;;;;;;;15.93;68.49;100525.45;1704203;84;21803;-80
2021/08/16 02:14:25;;;;;;;14.80;8.30;;;;;;;15.88;68.61;100517.50;1699040;84;21158;-80
2021/08/16 02:16:52;;;;;;;14.03;8.15;;;;;;;15.84;68.66;100510.84;1703695;83;21071;-80
2021/08/16 02:19:21;;;;;;;18.75;8.93;;;;;;;15.80;68.69;100503.78;1698030;84;21585;-80
2021/08/16 02:21:50;;;;;;;18.45;8.38;;;;;;;15.74;68.75;100500.23;1773456;80;21086;-80
2021/08/16 02:24:17;;;;;;;11.50;8.38;;;;;;;15.71;68.90;100496.24;1771456;80;22404;-80
2021/08/16 02:26:44;;;;;;;15.15;9.03;;;;;;;15.68;68.96;100494.03;1761725;81;21102;-80
2021/08/16 02:29:12;;;;;;;19.27;8.68;;;;;;;15.62;68.99;100492.26;1769217;81;21011;-80
2021/08/16 02:31:39;;;;;;;17.73;9.35;;;;;;;15.57;69.05;100484.73;1770048;80;21039;-80
2021/08/16 02:34:06;;;;;;;16.95;8.73;;;;;;;15.53;69.13;100489.60;1768625;80;21686;-80
2021/08/16 02:36:33;;;;;;;14.55;8.43;;;;;;;15.49;69.23;100482.53;1707117;83;21805;-80
2021/08/16 02:39:00;;;;;;;11.25;7.65;;;;;;;15.44;69.24;100478.53;1740633;81;21299;-80
2021/08/16 02:41:27;;;;;;;14.60;8.23;;;;;;;15.40;69.33;100473.23;1688121;83;21023;-80
2021/08/16 02:43:57;;;;;;;18.48;8.28;;;;;;;15.35;69.37;100470.14;1783365;80;21157;-80
2021/08/16 02:46:23;;;;;;;14.28;8.30;;;;;;;15.30;69.46;100471.90;1699630;83;21032;-80
2021/08/16 02:48:51;;;;;;;16.57;8.78;;;;;;;15.27;69.50;100474.98;1730373;82;21835;-80
2021/08/16 02:51:18;;;;;;;15.50;7.90;;;;;;;15.22;69.57;100473.67;1735402;82;21063;-80
2021/08/16 02:53:44;;;;;;;12.18;8.00;;;;;;;15.19;69.68;100473.66;1739605;81;21115;-81
2021/08/16 02:56:11;;;;;;;12.13;8.18;;;;;;;15.14;69.75;100465.67;1739814;82;21125;-80
2021/08/16 02:58:38;;;;;;;18.92;8.28;;;;;;;15.12;69.84;100462.59;1739180;81;21089;-80
2021/08/16 03:01:05;;;;;;;16.25;8.18;;;;;;;15.07;69.92;100465.66;1735516;82;21786;-80
2021/08/16 03:03:32;;;;;;;14.65;7.70;;;;;;;15.04;69.98;100466.55;1735651;82;21055;-81
2021/08/16 03:05:59;;;;;;;15.23;8.18;;;;;;;15.02;70.06;100462.14;1730304;82;21063;-80
2021/08/16 03:08:26;;;;;;;16.62;8.20;;;;;;;15.00;70.12;100457.25;1735381;82;21592;-80
2021/08/16 03:10:54;;;;;;;12.98;7.37;;;;;;;14.95;70.24;100450.17;1735122;82;21079;-80
2021/08/16 03:13:21;;;;;;;12.93;8.38;;;;;;;14.93;70.30;100451.95;1735802;82;22599;-80
2021/08/16 03:15:51;;;;;;;13.38;8.58;;;;;;;14.92;70.37;100454.17;1732161;82;21564;-80
2021/08/16 03:18:18;;;;;;;12.28;7.50;;;;;;;14.93;70.43;100456.37;1735259;82;21015;-80
2021/08/16 03:20:45;;;;;;;12.33;7.22;;;;;;;14.94;70.56;100452.81;1735270;82;21511;-79
2021/08/16 03:23:12;;;;;;;15.65;7.60;;;;;;;14.93;70.66;100453.27;1742033;81;21514;-80
2021/08/16 03:25:40;;;;;;;14.35;7.70;;;;;;;14.96;70.67;100451.09;1701871;82;21075;-79
2021/08/16 03:28:07;;;;;;;17.77;8.20;;;;;;;14.99;70.67;100447.55;1735569;82;21092;-80
2021/08/16 03:30:34;;;;;;;18.80;8.33;;;;;;;14.98;70.68;100436.07;1735421;82;21039;-80
2021/08/16 03:33:01;;;;;;;14.50;7.58;;;;;;;14.99;70.68;100440.47;1733838;82;21080;-80
2021/08/16 03:35:28;;;;;;;15.88;7.65;;;;;;;14.97;70.72;100441.78;1739130;81;21027;-79
2021/08/16 03:37:56;;;;;;;17.25;8.15;;;;;;;14.98;70.80;100442.70;1738533;82;21043;-79
2021/08/16 03:40:23;;;;;;;15.85;8.75;;;;;;;14.97;70.82;100445.77;1739838;82;21095;-79
2021/08/16 03:42:50;;;;;;;14.85;8.53;;;;;;;14.99;70.87;100443.57;1733510;82;21094;-79
2021/08/16 03:45:20;;;;;;;16.05;8.05;;;;;;;15.01;70.97;100445.78;1731514;82;21079;-79
2021/08/16 03:47:46;;;;;;;14.07;8.65;;;;;;;15.02;70.98;100443.14;1705924;83;21094;-80
2021/08/16 03:50:13;;;;;;;13.35;7.97;;;;;;;15.08;71.13;100440.48;1735612;82;21808;-79
2021/08/16 03:52:42;;;;;;;18.50;7.40;;;;;;;15.19;71.13;100435.20;1708194;83;21063;-80
2021/08/16 03:55:09;;;;;;;13.30;7.60;;;;;;;15.27;71.10;100429.91;1735706;82;21088;-79
2021/08/16 03:57:36;;;;;;;13.50;6.37;;;;;;;15.35;71.05;100427.72;1704848;83;21135;-79
2021/08/16 04:00:08;;;;;;;15.68;6.92;;;;;;;15.48;71.20;100423.27;1713558;83;21631;-79
2021/08/16 04:02:37;;;;;;;17.02;6.55;;;;;;;15.93;71.87;100419.27;1768423;80;21920;-80
2021/08/16 04:05:11;;;;;;;11.10;6.03;;;;;;;16.64;71.82;100413.25;1718460;82;21645;-80
2021/08/16 04:07:36;;;;;;;13.18;5.90;;;;;;;17.44;71.39;100409.20;1741596;80;21099;-80
2021/08/16 04:10:03;;;;;;;16.00;6.60;;;;;;;18.31;70.66;100410.09;1736564;82;21012;-80
2021/08/16 04:12:30;;;;;;;12.93;6.20;;;;;;;19.23;69.85;100403.47;1738823;81;21110;-80
2021/08/16 04:14:56;;;;;;;10.10;5.20;;;;;;;20.26;68.80;100397.20;1735898;81;21955;-81
2021/08/16 04:17:24;;;;;;;11.10;5.15;;;;;;;21.19;67.47;100400.05;1734069;82;21051;-80
2021/08/16 04:19:51;;;;;;;11.85;5.05;;;;;;;21.74;65.62;100397.34;1732934;82;21337;-80
2021/08/16 04:22:18;;;;;;;11.18;5.03;;;;;;;22.51;65.04;100393.86;1799609;79;21070;-80
2021/08/16 04:24:47;;;;;;;10.60;5.33;;;;;;;23.45;63.56;100393.58;1800752;79;21011;-80
2021/08/16 04:27:15;;;;;;;9.13;4.80;;;;;;;24.35;62.35;100381.41;1800415;79;22670;-78
2021/08/16 04:29:45;;;;;;;11.30;4.58;;;;;;;25.28;61.04;100392.13;1798466;79;21564;-76
2021/08/16 04:32:11;;;;;;;11.48;4.90;;;;;;;26.19;59.53;100386.38;1809643;79;21716;-78
2021/08/16 04:34:40;;;;;;;7.30;3.95;;;;;;;27.10;58.35;100392.03;1813998;79;21175;-79
2021/08/16 04:37:07;;;;;;;6.75;4.15;;;;;;;27.87;56.84;100371.91;1815048;78;21065;-77
2021/08/16 04:39:34;;;;;;;6.65;4.03;;;;;;;28.73;55.02;100390.27;1815235;78;21780;-81
2021/08/16 04:42:01;;;;;;;6.33;4.35;;;;;;;29.37;53.64;100387.05;1801142;78;21575;-81
2021/08/16 04:44:27;;;;;;;5.85;3.70;;;;;;;29.93;52.12;100388.69;1813158;78;21529;-81
2021/08/16 04:46:59;;;;;;;8.30;4.00;;;;;;;30.49;51.04;100390.20;1787020;79;21387;-80
2021/08/16 04:49:42;;;;;;;7.20;4.37;;;;;;;31.18;49.75;100388.92;1784605;79;21635;-85
2021/08/16 04:52:11;;;;;;;8.85;4.15;;;;;;;31.70;48.45;100385.41;1816393;79;21078;-82
2021/08/16 04:54:48;;;;;;;4.75;3.70;;;;;;;32.38;46.98;100390.18;1816737;79;21054;-82
2021/08/16 04:57:09;;;;;;;6.30;3.75;;;;;;;32.98;46.03;100376.73;1814803;78;21061;-82
2021/08/16 04:59:36;;;;;;;7.87;4.97;;;;;;;33.59;44.53;100374.81;1816759;79;21749;-80
2021/08/16 05:02:03;;;;;;;10.75;4.08;;;;;;;34.07;43.65;100373.85;1817048;78;21127;-80
2021/08/16 05:04:30;;;;;;;8.05;3.80;;;;;;;34.57;42.75;100369.40;1810531;78;22394;-80
2021/08/16 05:06:58;;;;;;;9.50;3.98;;;;;;;35.15;41.34;100369.17;1783885;79;21609;-80
2021/08/16 05:09:30;;;;;;;7.00;4.28;;;;;;;35.58;40.56;100353.22;1813116;78;21367;-80
2021/08/16 05:11:58;;;;;;;9.93;3.77;;;;;;;36.04;39.54;100357.92;1798053;78;21377;-81
2021/08/16 05:14:23;;;;;;;13.35;4.45;;;;;;;36.31;38.89;100351.89;1807217;78;21042;-80
2021/08/16 05:16:54;;;;;;;9.03;4.65;;;;;;;36.86;38.00;100361.10;1787439;79;21564;-80
2021/08/16 05:19:22;;;;;;;8.05;4.30;;;;;;;37.32;36.94;100373.33;1807979;78;21039;-81
2021/08/16 05:21:54;;;;;;;6.33;4.05;;;;;;;37.70;36.30;100375.70;1800052;78;21587;-79
2021/08/16 05:24:19;;;;;;;9.63;3.83;;;;;;;38.11;35.67;100374.48;1811676;78;21137;-79
2021/08/16 05:26:46;;;;;;;6.35;4.40;;;;;;;38.50;34.85;100372.09;1812838;79;21023;-80
2021/08/16 05:29:15;;;;;;;7.47;4.03;;;;;;;38.85;34.12;100363.59;1812885;79;21738;-79
2021/08/16 05:31:47;;;;;;;7.75;3.85;;;;;;;39.04;33.59;100361.23;1810164;78;21015;-80
2021/08/16 05:34:22;;;;;;;11.00;4.90;;;;;;;39.28;32.89;100360.62;1811519;79;20987;-79
2021/08/16 05:37:07;;;;;;;7.87;4.78;;;;;;;39.10;31.97;100362.02;1752969;79;21081;-79
2021/08/16 05:39:34;;;;;;;11.85;4.60;;;;;;;38.04;31.68;100358.71;1784496;79;22292;-79
2021/08/16 05:42:02;;;;;;;8.58;4.55;;;;;;;36.62;31.37;100358.70;1813087;79;21853;-79
2021/08/16 05:44:34;;;;;;;11.18;4.20;;;;;;;35.06;31.74;100357.13;1782196;79;21018;-79
2021/08/16 05:47:06;;;;;;;6.70;4.37;;;;;;;33.66;32.47;100351.55;1808170;78;21081;-79
2021/08/16 05:49:36;;;;;;;6.65;4.92;;;;;;;32.44;33.25;100341.19;1809524;78;20995;-79
2021/08/16 05:52:06;;;;;;;12.65;5.45;;;;;;;31.33;34.13;100334.85;1784400;78;21031;-81
2021/08/16 05:54:37;;;;;;;16.00;5.35;;;;;;;30.41;34.88;100333.67;1813623;79;21856;-78
2021/08/16 05:57:04;;;;;;;11.22;4.72;;;;;;;29.60;35.72;100334.16;1811239;78;21077;-79
2021/08/16 05:59:33;;;;;;;9.40;4.75;;;;;;;28.86;36.51;100327.66;1785333;79;21094;-78
2021/08/16 06:01:59;;;;;;;7.15;4.05;;;;;;;28.23;37.16;100335.72;1808996;78;21050;-79
2021/08/16 06:04:26;;;;;;;15.10;4.53;;;;;;;27.61;37.88;100326.86;1812907;78;21104;-78
2021/08/16 06:06:53;;;;;;;8.38;3.95;;;;;;;27.16;38.61;100328.25;1816360;78;21772;-79
2021/08/16 06:09:20;;;;;;;7.53;4.17;;;;;;;26.77;39.29;100330.63;1814745;78;21105;-79
2021/08/16 06:11:50;;;;;;;8.45;4.47;;;;;;;26.40;39.85;100336.41;1814062;79;21089;-79
2021/08/16 06:14:18;;;;;;;9.63;4.95;;;;;;;26.07;40.42;100326.72;1813352;79;21051;-79
2021/08/16 06:16:45;;;;;;;9.48;4.00;;;;;;;25.75;40.99;100320.49;1813980;79;21564;-79
2021/08/16 06:19:12;;;;;;;8.88;3.77;;;;;;;25.49;41.44;100330.18;1814076;79;22718;-79
2021/08/16 06:21:43;;;;;;;7.03;4.22;;;;;;;25.25;41.91;100327.62;1815469;78;21073;-79
2021/08/16 06:24:11;;;;;;;8.20;5.05;;;;;;;25.02;42.31;100320.02;1786892;79;21529;-79
2021/08/16 06:26:38;;;;;;;7.58;3.77;;;;;;;24.84;42.92;100318.08;1812805;78;21042;-79
2021/08/16 06:29:08;;;;;;;11.50;4.30;;;;;;;24.69;43.38;100299.39;1815368;78;21062;-79
2021/08/16 06:31:34;;;;;;;8.43;4.40;;;;;;;24.55;43.63;100297.71;1813319;79;22627;-79
2021/08/16 06:34:01;;;;;;;10.55;5.40;;;;;;;24.44;43.99;100304.38;1807125;78;21073;-79
2021/08/16 06:36:27;;;;;;;9.90;5.47;;;;;;;24.42;44.48;100300.02;1812441;78;21544;-79
2021/08/16 06:38:54;;;;;;;8.95;4.95;;;;;;;24.42;44.74;100301.36;1814620;78;21054;-79
2021/08/16 06:41:21;;;;;;;6.92;4.42;;;;;;;24.40;44.95;100304.10;1816374;78;21508;-79
2021/08/16 06:43:48;;;;;;;8.95;4.42;;;;;;;24.36;45.25;100300.23;1811194;79;21758;-78
2021/08/16 06:46:15;;;;;;;7.75;4.22;;;;;;;24.36;45.46;100304.27;1804889;78;21045;-79
2021/08/16 06:48:44;;;;;;;12.33;5.35;;;;;;;24.36;45.57;100292.16;1816126;78;21179;-79
2021/08/16 06:51:10;;;;;;;11.22;5.30;;;;;;;24.35;45.78;100289.08;1815508;78;21581;-79
2021/08/16 06:53:37;;;;;;;9.70;4.40;;;;;;;24.28;46.00;100290.25;1810296;78;21497;-79
2021/08/16 06:56:04;;;;;;;10.60;4.25;;;;;;;24.21;46.23;100281.53;1810095;78;21799;-79
2021/08/16 06:58:32;;;;;;;6.47;4.15;;;;;;;24.20;46.46;100287.87;1813691;79;21006;-80
2021/08/16 07:00:59;;;;;;;12.25;4.80;;;;;;;24.21;46.65;100282.44;1806136;78;21067;-79
2021/08/16 07:03:29;;;;;;;9.55;4.60;;;;;;;24.19;46.74;100273.52;1808890;79;20999;-79
2021/08/16 07:05:57;;;;;;;9.70;4.72;;;;;;;24.17;47.00;100271.36;1779237;78;36664;-79
2021/08/16 07:08:23;;;;;;;9.05;4.55;;;;;;;24.13;47.11;100274.25;1812971;78;21784;-79
2021/08/16 07:10:50;;;;;;;8.08;5.08;;;;;;;24.09;47.33;100277.52;1806846;78;21058;-79
2021/08/16 07:13:17;;;;;;;5.92;4.60;;;;;;;24.10;47.60;100272.56;1812952;78;21062;-79
2021/08/16 07:15:44;;;;;;;8.35;4.58;;;;;;;24.12;47.77;100272.03;1812294;79;21147;-79
2021/08/16 07:18:10;;;;;;;10.10;7.97;;;;;;;24.14;48.03;100267.47;1814214;79;21042;-79
2021/08/16 07:20:37;;;;;;;9.65;5.35;;;;;;;24.17;48.15;100266.46;1814332;79;21958;-79
2021/08/16 07:23:04;;;;;;;10.90;4.95;;;;;;;24.20;48.18;100263.19;1813601;79;21043;-79
2021/08/16 07:25:30;;;;;;;8.05;4.75;;;;;;;24.23;48.35;100250.08;1808149;79;21159;-79
2021/08/16 07:27:57;;;;;;;12.13;4.45;;;;;;;24.22;48.37;100251.90;1816392;78;21191;-79
2021/08/16 07:30:24;;;;;;;11.73;5.20;;;;;;;24.26;48.40;100247.27;1814694;78;21054;-79
2021/08/16 07:32:50;;;;;;;10.53;6.47;;;;;;;24.34;48.51;100255.91;1814212;79;21713;-79
2021/08/16 07:35:17;;;;;;;10.48;5.08;;;;;;;24.48;48.72;100247.77;1816896;78;21030;-79
2021/08/16 07:37:44;;;;;;;18.27;5.95;;;;;;;24.66;48.77;100240.77;1808258;79;21054;-79
2021/08/16 07:40:12;;;;;;;8.15;5.47;;;;;;;24.86;48.74;100233.22;1796966;79;21585;-79
2021/08/16 07:42:40;;;;;;;10.38;5.00;;;;;;;25.09;48.60;100231.74;1814224;79;21489;-79
2021/08/16 07:45:08;;;;;;;13.53;5.15;;;;;;;25.29;48.43;100230.91;1814255;79;21741;-79
2021/08/16 07:47:35;;;;;;;23.70;5.65;;;;;;;25.45;48.15;100238.30;1813132;78;20980;-80
2021/08/16 07:50:02;;;;;;;12.53;5.17;;;;;;;25.57;47.87;100235.94;1814135;79;21101;-80
2021/08/16 07:52:28;;;;;;;11.38;5.40;;;;;;;25.70;47.82;100238.95;1814443;78;21243;-80
2021/08/16 07:54:55;;;;;;;10.18;4.35;;;;;;;25.89;47.86;100234.05;1813752;79;20999;-80
2021/08/16 07:57:22;;;;;;;8.38;4.35;;;;;;;26.07;47.70;100225.13;1817624;78;21768;-80
2021/08/16 07:59:49;;;;;;;11.85;5.03;;;;;;;26.23;47.56;100223.91;1810238;78;21058;-80
2021/08/16 08:02:15;;;;;;;14.75;4.60;;;;;;;26.37;47.44;100222.77;1813829;78;21059;-80
2021/08/16 08:04:42;;;;;;;14.10;4.90;;;;;;;26.53;47.17;100223.35;1814648;78;21031;-80
2021/08/16 08:07:09;;;;;;;14.53;7.08;;;;;;;26.67;47.18;100219.53;1808402;78;21046;-78
2021/08/16 08:09:36;;;;;;;7.50;5.15;;;;;;;26.84;47.17;100221.38;1804355;79;21745;-78
2021/08/16 08:12:04;;;;;;;7.90;5.00;;;;;;;26.99;46.93;100216.11;1806429;78;20992;-78
2021/08/16 08:14:33;;;;;;;11.65;4.95;;;;;;;27.08;46.74;100218.34;1812662;78;21725;-79
2021/08/16 08:16:59;;;;;;;11.40;4.90;;;;;;;27.09;46.54;100212.86;1809876;79;21031;-79
2021/08/16 08:19:26;;;;;;;9.15;5.67;;;;;;;27.05;46.56;100207.23;1808713;78;21102;-80
2021/08/16 08:21:52;;;;;;;11.33;5.33;;;;;;;27.07;46.63;100209.38;1814193;79;22734;-79
2021/08/16 08:24:19;;;;;;;12.23;4.75;;;;;;;27.08;46.68;100204.84;1804318;78;21028;-80
2021/08/16 08:26:49;;;;;;;11.03;5.10;;;;;;;27.04;46.58;100199.20;1816181;78;21057;-78
2021/08/16 08:29:15;;;;;;;11.93;8.78;;;;;;;27.04;46.58;100197.85;1813820;79;21113;-78
2021/08/16 08:31:42;;;;;;;10.00;5.67;;;;;;;27.01;46.59;100192.14;1813879;78;21065;-81
2021/08/16 08:34:09;;;;;;;11.60;6.28;;;;;;;27.00;46.61;100194.92;1812978;78;22774;-78
2021/08/16 08:36:36;;;;;;;18.98;6.08;;;;;;;26.93;46.47;100191.20;1814746;78;21102;-79
2021/08/16 08:39:04;;;;;;;15.93;8.05;;;;;;;26.88;46.51;100186.95;1815056;78;21054;-79
2021/08/16 08:41:33;;;;;;;10.15;5.75;;;;;;;26.84;46.67;100194.38;1813841;78;21026;-79
2021/08/16 08:44:00;;;;;;;11.88;4.92;;;;;;;26.81;46.65;100190.47;1813937;79;21426;-79
2021/08/16 08:46:27;;;;;;;11.65;5.75;;;;;;;26.78;46.61;100183.86;1814302;79;22545;-79
2021/08/16 08:48:54;;;;;;;8.25;4.90;;;;;;;26.76;46.63;100177.67;1809988;78;21634;-79
2021/08/16 08:51:21;;;;;;;12.88;6.55;;;;;;;26.76;46.59;100174.97;1814306;79;21090;-79
2021/08/16 08:53:48;;;;;;;8.65;5.40;;;;;;;26.76;46.52;100174.48;1816901;78;21149;-79
2021/08/16 08:56:16;;;;;;;11.80;4.90;;;;;;;26.75;46.49;100168.70;1814354;79;21003;-79
2021/08/16 08:58:45;;;;;;;5.85;4.40;;;;;;;26.76;46.26;100159.64;1812690;78;21863;-79
2021/08/16 09:01:13;;;;;;;12.33;6.83;;;;;;;26.78;45.98;100168.15;1806602;78;21051;-79
2021/08/16 09:03:49;;;;;;;9.78;5.55;;;;;;;26.75;45.72;100167.36;1814090;79;20987;-79
2021/08/16 09:06:29;;;;;;;23.05;5.35;;;;;;;26.72;45.59;100160.75;1813913;79;22141;-79
2021/08/16 09:08:56;;;;;;;16.85;5.50;;;;;;;26.74;45.54;100160.68;1812351;78;21003;-79
2021/08/16 09:11:24;;;;;;;7.65;4.50;;;;;;;26.76;45.52;100158.28;1815168;78;21746;-79
2021/08/16 09:14:03;;;;;;;4.62;4.05;;;;;;;26.80;45.34;100164.41;1809141;78;21173;-79
2021/08/16 09:16:34;;;;;;;6.78;4.55;;;;;;;26.84;45.18;100162.42;1819464;78;21089;-79
2021/08/16 09:19:20;;;;;;;11.57;5.17;;;;;;;26.86;45.11;100155.11;1815424;78;21027;-79
2021/08/16 09:22:11;;;;;;;6.15;4.75;;;;;;;26.92;45.19;100151.63;1809991;79;21074;-79
2021/08/16 09:24:25;;;;;;;11.33;4.80;;;;;;;26.99;45.10;100148.14;1797861;79;21776;-79
2021/08/16 09:26:52;;;;;;;9.58;4.67;;;;;;;27.09;45.03;100144.47;1809402;78;21671;-82
2021/08/16 09:29:24;;;;;;;9.85;4.85;;;;;;;27.16;44.82;100140.48;1813856;78;21509;-79
2021/08/16 09:32:03;;;;;;;7.58;4.87;;;;;;;27.21;44.76;100141.09;1812445;78;21133;-80
2021/08/16 09:34:46;;;;;;;8.33;4.92;;;;;;;27.26;44.40;100140.41;1805808;78;21074;-79
2021/08/16 09:37:22;;;;;;;9.00;4.15;;;;;;;27.27;43.75;100138.11;1811178;79;21773;-78
2021/08/16 09:40:01;;;;;;;16.35;5.00;;;;;;;27.27;43.72;100141.27;1815310;78;21489;-79
2021/08/16 09:42:43;;;;;;;14.47;4.15;;;;;;;27.32;43.51;100139.20;1814009;79;21054;-79
2021/08/16 09:45:16;;;;;;;11.48;4.20;;;;;;;27.36;43.39;100141.26;1812433;79;21022;-79
2021/08/16 09:47:47;;;;;;;4.80;3.77;;;;;;;27.41;43.05;100134.64;1810434;78;21000;-79
2021/08/16 09:50:13;;;;;;;8.13;4.40;;;;;;;27.47;43.22;100134.78;1812183;78;22517;-79
2021/08/16 09:52:41;;;;;;;8.73;5.55;;;;;;;27.52;42.80;100126.81;1814667;78;21018;-79
2021/08/16 09:55:10;;;;;;;8.18;3.92;;;;;;;27.54;42.68;100133.00;1808575;79;21193;-79
2021/08/16 09:57:38;;;;;;;10.98;4.45;;;;;;;27.58;42.53;100129.66;1809227;78;21065;-79
2021/08/16 10:00:06;;;;;;;9.95;4.22;;;;;;;27.64;42.56;100132.49;1814086;79;21070;-79
2021/08/16 10:02:37;;;;;;;12.33;3.83;;;;;;;27.72;42.30;100123.45;1788236;79;21046;-79
2021/08/16 10:05:05;;;;;;;7.20;3.27;;;;;;;27.76;41.45;100124.16;1812273;78;21643;-79
2021/08/16 10:07:32;;;;;;;8.90;3.72;;;;;;;27.80;41.12;100121.67;1813996;79;21030;-79
2021/08/16 10:09:59;;;;;;;9.55;3.30;;;;;;;27.86;41.22;100124.05;1813626;78;21026;-79
2021/08/16 10:12:29;;;;;;;8.83;3.50;;;;;;;27.96;40.81;100113.11;1812942;78;21007;-79
2021/08/16 10:14:56;;;;;;;7.58;3.55;;;;;;;28.08;40.31;100108.36;1783896;78;21847;-79
2021/08/16 10:17:27;;;;;;;10.18;3.98;;;;;;;28.20;39.90;100109.95;1815013;78;21468;-79
2021/08/16 10:19:55;;;;;;;5.62;3.20;;;;;;;28.25;39.32;100103.80;1814256;78;21113;-80
2021/08/16 10:22:22;;;;;;;12.18;3.27;;;;;;;28.22;38.82;100101.27;1813976;79;21288;-79
2021/08/16 10:24:50;;;;;;;3.98;2.90;;;;;;;28.15;38.51;100091.27;1813899;79;21105;-82
2021/08/16 10:27:17;;;;;;;7.90;3.52;;;;;;;28.07;38.33;100098.97;1813690;79;21913;-79
2021/08/16 10:29:45;;;;;;;10.03;3.12;;;;;;;28.04;37.98;100093.73;1813481;78;21039;-79
2021/08/16 10:32:19;;;;;;;10.45;3.50;;;;;;;28.07;37.91;100094.42;1815664;78;21078;-80
2021/08/16 10:34:46;;;;;;;9.43;3.40;;;;;;;28.15;37.80;100089.05;1810806;78;21039;-79
2021/08/16 10:37:15;;;;;;;5.65;3.17;;;;;;;28.27;37.82;100084.28;1812066;78;21034;-79
2021/08/16 10:39:51;;;;;;;5.67;3.00;;;;;;;28.35;37.29;100083.33;1813444;79;21769;-79
2021/08/16 10:42:17;;;;;;;7.00;2.95;;;;;;;28.41;37.21;100080.25;1812780;78;21019;-79
2021/08/16 10:44:46;;;;;;;15.63;3.50;;;;;;;28.50;37.13;100083.76;1811783;78;21047;-79
2021/08/16 10:47:26;;;;;;;10.58;3.95;;;;;;;28.59;37.19;100076.96;1815680;78;21208;-79
2021/08/16 10:50:19;;;;;;;6.80;3.33;;;;;;;28.65;36.94;100079.28;1802861;78;21551;-79
2021/08/16 10:52:48;;;;;;;7.42;3.10;;;;;;;28.72;36.87;100069.42;1813179;78;21805;-79
2021/08/16 10:55:17;;;;;;;8.35;3.05;;;;;;;28.74;36.87;100083.73;1816950;78;21035;-79
2021/08/16 10:57:44;;;;;;;6.97;3.00;;;;;;;28.81;36.85;100083.75;1815470;78;21057;-79
2021/08/16 11:00:13;;;;;;;4.15;3.02;;;;;;;28.96;37.02;100080.58;1812097;78;21650;-80
2021/08/16 11:02:42;;;;;;;6.53;3.10;;;;;;;29.08;36.80;100075.27;1803174;78;21011;-80
2021/08/16 11:05:11;;;;;;;7.17;3.60;;;;;;;29.16;36.69;100076.17;1813101;79;21778;-79
2021/08/16 11:07:39;;;;;;;9.43;3.37;;;;;;;29.22;36.43;100072.20;1818691;78;21084;-79
2021/08/16 11:10:09;;;;;;;5.47;3.50;;;;;;;29.29;36.45;100071.34;1809849;78;21062;-79
2021/08/16 11:12:45;;;;;;;5.50;3.00;;;;;;;29.39;36.44;100061.63;1815089;78;21078;-80
2021/08/16 11:15:13;;;;;;;18.07;3.58;;;;;;;29.50;36.11;100058.23;1811595;78;21030;-80
2021/08/16 11:17:40;;;;;;;7.72;3.42;;;;;;;29.55;35.87;100062.38;1805589;79;21963;-80
2021/08/16 11:20:18;;;;;;;7.10;3.00;;;;;;;29.65;36.06;100063.51;1810090;78;21007;-80
2021/08/16 11:22:57;;;;;;;8.45;3.35;;;;;;;29.78;35.75;100060.03;1813927;79;21062;-80
2021/08/16 11:25:27;;;;;;;5.60;3.02;;;;;;;29.92;35.32;100053.68;1814065;79;21105;-80
2021/08/16 11:27:55;;;;;;;5.65;2.90;;;;;;;29.99;34.89;100046.87;1813483;79;21058;-80